Limaville, OH (44640)

3:29 AM EST on January 30, 2015 (GMT -0500)
Marlboro Twp | Change Station
CLOSE
Current Station
Personal Weather Station
Location: Alliance, OH
Elevation: 1152 ft
Nearby Weather Stations

Elev 1152 ft 40.98 °N, 81.21 °W | Updated 3 minutes ago

Snow
Snow
25.5 °F
Feels Like 13 °F
N
16.1
Wind Variable Wind from NW

Today
High -- | Low -- °F
--% Chance of Precip.
Yesterday
High -- | Low -- °F
Precip. -- in
7:37 AM 5:38 PM
Waxing Gibbous, 81% visible
Pressure 30.07 in
Visibility 2.0 miles
Clouds Scattered Clouds 1300 ft
Overcast 3500 ft
Windchill 13 °F
Dew Point 24 °F
Humidity 96%
Rainfall 0.00 in
Snow Depth Not available.
UV 0 out of 12
Pollen .10 out of 12
Air Quality Not available.
Flu Activity Not available.
METAR KCAK 300751Z 31013G20KT 2SM -SN SCT013 OVC035 M02/M05 A3004 RMK AO2 PK WND 32028/0727 SLP183 P0000 T10221050 $

More Conditions Fewer Conditions

Pressure 30.07 in
Visibility 2.0 miles
Clouds Scattered Clouds 1300 ft
Overcast 3500 ft
Windchill 13 °F
Dew Point 24 °F
Humidity 96%
Rainfall 0.00 in
Snow Depth Not available.
UV 0 out of 12
Pollen .10 out of 12
Air Quality Not available.
Flu Activity Not available.
METAR KCAK 300751Z 31013G20KT 2SM -SN SCT013 OVC035 M02/M05 A3004 RMK AO2 PK WND 32028/0727 SLP183 P0000 T10221050 $

More Conditions Fewer Conditions

10-Day Weather Forecast

Almanac

Astronomy

Jan. 30, 2015 Rise Set
Actual Time
Civil Twilight
Nautical Twilight
Astronomical Twilight
Moon
Length of Visible Light
Length of Day
Tomorrow will be .
, % of the Moon is Illuminated

Today's Extremes

State Highs State Lows

Community

WunderPhotos

Upload Photos

1,791,726 photos uploaded!

WunderBlogs® & News

Nearby

Air Quality

  Air Quality AQ Index Pollutant
Not available.

Snow Depth

Station Depth Elevation

Earthquake Activity

City Distance Mag. Time & Date
Minimum magnitude displayed is 2.5.

Coastal Water Temperatures

Place Temperature

Nearby Weather Stations